createdAt,value
2022-10-01T00:01:17.767Z,4.38
2022-10-01T00:03:45.455Z,7.22
2022-10-01T00:06:17.539Z,6.38
2022-10-01T00:08:49.247Z,5.88
2022-10-01T00:11:24.514Z,5.97
2022-10-01T00:13:52.672Z,6.72
2022-10-01T00:16:23.100Z,5.18
2022-10-01T00:18:50.501Z,7.35
2022-10-01T00:21:29.509Z,5.70
2022-10-01T00:24:03.139Z,6.80
2022-10-01T00:26:32.943Z,5.82
2022-10-01T00:29:02.262Z,6.75
2022-10-01T00:31:29.970Z,7.13
2022-10-01T00:33:59.127Z,7.68
2022-10-01T00:36:26.769Z,8.52
2022-10-01T00:38:53.749Z,5.47
2022-10-01T00:41:20.699Z,6.05
2022-10-01T00:43:54.887Z,5.47
2022-10-01T00:46:27.812Z,6.72
2022-10-01T00:49:07.208Z,5.50
2022-10-01T00:51:41.060Z,5.50
2022-10-01T00:54:13.377Z,4.57
2022-10-01T00:56:41.683Z,6.45
2022-10-01T00:59:10.200Z,7.15
2022-10-01T01:01:38.978Z,7.32
2022-10-01T01:04:16.458Z,6.10
2022-10-01T01:06:57.806Z,5.68
2022-10-01T01:09:33.407Z,4.82
2022-10-01T01:12:34.027Z,5.03
2022-10-01T01:15:10.750Z,5.93
2022-10-01T01:17:53.253Z,5.22
2022-10-01T01:20:53.779Z,6.82
2022-10-01T01:23:58.484Z,5.43
2022-10-01T01:26:31.608Z,5.82
2022-10-01T01:29:04.664Z,5.67
2022-10-01T01:31:37.810Z,4.63
2022-10-01T01:34:12.552Z,5.28
2022-10-01T01:36:45.127Z,4.43
2022-10-01T01:39:15.442Z,5.65
2022-10-01T01:41:51.041Z,4.63
2022-10-01T01:44:24.997Z,2.85
2022-10-01T01:49:21.027Z,3.60
2022-10-01T01:52:05.368Z,3.33
2022-10-01T01:54:34.572Z,3.05
2022-10-01T01:57:04.167Z,3.67
2022-10-01T01:59:35.561Z,4.40
2022-10-01T02:02:06.919Z,3.28
2022-10-01T02:04:54.709Z,4.43
2022-10-01T02:07:33.227Z,2.67
2022-10-01T02:10:39.141Z,2.28
2022-10-01T02:13:18.976Z,4.22
2022-10-01T02:15:56.930Z,2.63
2022-10-01T02:18:33.987Z,10.38
2022-10-01T02:21:05.315Z,3.70
2022-10-01T02:23:39.171Z,3.38
2022-10-01T02:28:40.004Z,3.83
2022-10-01T02:31:07.642Z,4.40
2022-10-01T02:33:36.667Z,2.20
2022-10-01T02:36:07.331Z,4.78
2022-10-01T02:38:37.399Z,3.05
2022-10-01T02:41:09.016Z,2.28
2022-10-01T02:43:42.958Z,2.97
2022-10-01T02:46:44.589Z,3.40
2022-10-01T02:49:13.417Z,9.13
2022-10-01T02:51:55.872Z,5.22
2022-10-01T02:54:36.313Z,3.63
2022-10-01T02:57:21.628Z,2.15
2022-10-01T02:59:49.063Z,4.00
2022-10-01T03:02:16.224Z,3.67
2022-10-01T03:04:43.220Z,4.45
2022-10-01T03:07:10.165Z,2.58
2022-10-01T03:09:37.115Z,2.38
2022-10-01T03:12:04.080Z,2.25
2022-10-01T03:14:32.420Z,2.33
2022-10-01T03:16:59.542Z,3.05
2022-10-01T03:19:26.489Z,3.45
2022-10-01T03:21:53.444Z,3.00
2022-10-01T03:24:20.377Z,3.15
2022-10-01T03:26:47.232Z,2.08
2022-10-01T03:29:14.777Z,2.40
2022-10-01T03:31:41.963Z,3.28
2022-10-01T03:34:09.219Z,2.22
2022-10-01T03:36:36.156Z,1.95
2022-10-01T03:39:03.147Z,3.13
2022-10-01T03:41:30.045Z,2.15
2022-10-01T03:44:00.417Z,1.52
2022-10-01T03:46:27.680Z,2.42
2022-10-01T03:48:55.913Z,2.08
2022-10-01T03:51:23.395Z,3.10
2022-10-01T03:53:50.421Z,3.45
2022-10-01T03:56:17.458Z,3.47
2022-10-01T03:58:44.356Z,3.03
2022-10-01T04:01:11.375Z,4.38
2022-10-01T04:03:38.326Z,3.60
2022-10-01T04:06:05.405Z,2.55
2022-10-01T04:08:32.305Z,4.35
2022-10-01T04:11:01.008Z,6.18
2022-10-01T04:13:29.977Z,3.70
2022-10-01T04:15:56.951Z,2.33
2022-10-01T04:18:24.138Z,4.65
2022-10-01T04:20:51.101Z,4.80
2022-10-01T04:23:18.239Z,6.80
2022-10-01T04:25:45.422Z,5.90
2022-10-01T04:28:13.630Z,9.88
2022-10-01T04:30:42.790Z,5.65
2022-10-01T04:33:13.208Z,3.80
2022-10-01T04:35:40.240Z,10.00
2022-10-01T04:38:12.432Z,7.30
2022-10-01T04:40:39.503Z,8.02
2022-10-01T04:43:10.619Z,9.85
2022-10-01T04:45:38.181Z,10.45
2022-10-01T04:48:05.556Z,12.00
2022-10-01T04:50:32.681Z,12.13
2022-10-01T04:52:59.801Z,11.93
2022-10-01T04:55:26.991Z,14.50
2022-10-01T04:57:53.968Z,17.63
2022-10-01T05:00:24.601Z,15.60
2022-10-01T05:02:52.320Z,18.83
2022-10-01T05:05:21.566Z,19.55
2022-10-01T05:07:49.233Z,11.75
2022-10-01T05:10:18.816Z,16.52
2022-10-01T05:12:46.961Z,17.98
2022-10-01T05:15:15.088Z,16.15
2022-10-01T05:17:42.517Z,16.85
2022-10-01T05:20:19.133Z,19.73
2022-10-01T05:22:47.367Z,18.95
2022-10-01T05:25:14.671Z,18.58
2022-10-01T05:27:41.965Z,18.55
2022-10-01T05:30:10.753Z,17.05
2022-10-01T05:32:38.621Z,25.80
2022-10-01T05:35:08.323Z,24.42
2022-10-01T05:37:35.876Z,22.98
2022-10-01T05:40:03.771Z,23.55
2022-10-01T05:42:30.755Z,22.10
2022-10-01T05:44:57.673Z,17.45
2022-10-01T05:47:24.756Z,22.63
2022-10-01T05:49:51.653Z,12.70
2022-10-01T05:52:18.586Z,16.23
2022-10-01T05:54:45.447Z,22.40
2022-10-01T05:57:13.095Z,18.05
2022-10-01T05:59:40.300Z,27.83
2022-10-01T06:02:09.965Z,15.77
2022-10-01T06:04:40.986Z,27.63
2022-10-01T06:07:08.215Z,26.27
2022-10-01T06:09:35.113Z,27.88
2022-10-01T06:12:02.715Z,28.23
2022-10-01T06:14:29.802Z,28.45
2022-10-01T06:16:56.881Z,35.85
2022-10-01T06:19:23.907Z,29.25
2022-10-01T06:21:51.992Z,39.00
2022-10-01T06:24:19.076Z,32.83
2022-10-01T06:26:46.045Z,27.60
2022-10-01T06:29:12.981Z,31.55
2022-10-01T06:31:40.055Z,26.10
2022-10-01T06:34:07.125Z,35.05
2022-10-01T06:36:34.518Z,28.25
2022-10-01T06:39:01.528Z,40.90
2022-10-01T06:41:28.539Z,30.70
2022-10-01T06:43:55.445Z,29.02
2022-10-01T06:46:22.541Z,27.58
2022-10-01T06:48:49.897Z,29.33
2022-10-01T06:51:36.968Z,43.22
2022-10-01T06:54:04.731Z,30.35
2022-10-01T06:56:31.619Z,32.05
2022-10-01T06:58:58.524Z,27.23
2022-10-01T07:01:25.578Z,29.23
2022-10-01T07:03:54.526Z,36.92
2022-10-01T07:06:21.412Z,41.47
2022-10-01T07:08:51.386Z,25.88
2022-10-01T07:11:19.145Z,35.45
2022-10-01T07:13:46.119Z,52.13
2022-10-01T07:16:13.235Z,42.10
2022-10-01T07:18:40.217Z,44.05
2022-10-01T07:21:07.265Z,43.05
2022-10-01T07:23:34.179Z,33.92
2022-10-01T07:26:03.715Z,45.50
2022-10-01T07:28:30.709Z,37.30
2022-10-01T07:31:07.268Z,39.13
2022-10-01T07:33:34.508Z,40.60
2022-10-01T07:36:02.993Z,35.15
2022-10-01T07:38:30.163Z,43.95
2022-10-01T07:40:58.908Z,38.42
2022-10-01T07:43:26.062Z,32.08
2022-10-01T07:45:55.208Z,44.05
2022-10-01T07:48:22.330Z,38.47
2022-10-01T07:50:49.634Z,38.15
2022-10-01T07:53:17.204Z,40.15
2022-10-01T07:55:44.876Z,44.42
2022-10-01T07:58:12.608Z,43.17
2022-10-01T08:00:40.064Z,48.83
2022-10-01T08:03:07.119Z,52.13
2022-10-01T08:05:36.165Z,50.53
2022-10-01T08:08:07.542Z,42.55
2022-10-01T08:10:36.515Z,43.22
2022-10-01T08:13:14.444Z,39.83
2022-10-01T08:15:46.724Z,35.13
2022-10-01T08:18:14.105Z,43.15
2022-10-01T08:20:41.194Z,39.28
2022-10-01T08:23:10.621Z,36.65
2022-10-01T08:25:38.146Z,34.75
2022-10-01T08:28:06.566Z,35.97
2022-10-01T08:30:33.544Z,23.35
2022-10-01T08:33:01.916Z,27.52
2022-10-01T08:35:30.215Z,30.98
2022-10-01T08:38:04.108Z,25.75
2022-10-01T08:43:12.877Z,29.20
2022-10-01T08:45:45.445Z,27.33
2022-10-01T08:48:42.876Z,25.48
2022-10-01T08:51:33.283Z,25.63
2022-10-01T08:54:16.462Z,22.73
2022-10-01T08:56:47.566Z,18.48
2022-10-01T08:59:51.099Z,26.33
2022-10-01T09:02:19.375Z,21.48
2022-10-01T09:04:48.151Z,20.63
2022-10-01T09:07:41.467Z,23.02
2022-10-01T09:10:20.293Z,26.27
2022-10-01T09:13:08.735Z,22.33
2022-10-01T09:15:58.080Z,14.65
2022-10-01T09:19:02.707Z,16.27
2022-10-01T09:21:50.549Z,18.00
2022-10-01T09:24:32.321Z,23.13
2022-10-01T09:27:00.808Z,20.85
2022-10-01T09:29:39.228Z,22.95
2022-10-01T09:32:07.027Z,21.55
2022-10-01T09:34:43.104Z,20.40
2022-10-01T09:37:30.303Z,20.52
2022-10-01T09:40:14.915Z,17.92
2022-10-01T09:42:42.499Z,19.50
2022-10-01T09:45:17.045Z,20.70
2022-10-01T09:47:51.149Z,19.77
2022-10-01T09:50:41.129Z,24.52
2022-10-01T09:53:18.192Z,24.08
2022-10-01T09:55:52.338Z,14.75
2022-10-01T09:58:23.882Z,22.70
2022-10-01T10:00:53.634Z,21.27
2022-10-01T10:03:30.782Z,24.52
2022-10-01T10:06:02.166Z,20.30
2022-10-01T10:08:35.604Z,18.08
2022-10-01T10:11:06.680Z,19.27
2022-10-01T10:13:40.709Z,21.40
2022-10-01T10:16:26.322Z,29.60
2022-10-01T10:19:02.679Z,21.90
2022-10-01T10:21:34.906Z,21.77
2022-10-01T10:24:06.872Z,20.73
2022-10-01T10:26:38.803Z,16.30
2022-10-01T10:29:24.301Z,21.40
2022-10-01T10:31:51.708Z,18.73
2022-10-01T10:34:31.922Z,20.92
2022-10-01T10:37:05.262Z,28.20
2022-10-01T10:39:36.338Z,21.02
2022-10-01T10:42:05.786Z,24.23
2022-10-01T10:44:38.851Z,14.85
2022-10-01T10:47:13.637Z,18.38
2022-10-01T10:50:04.167Z,20.30
2022-10-01T10:52:36.927Z,18.92
2022-10-01T10:55:28.944Z,19.85
2022-10-01T10:57:58.003Z,21.63
2022-10-01T11:00:26.375Z,17.60
2022-10-01T11:03:00.923Z,21.02
2022-10-01T11:05:32.122Z,16.33
2022-10-01T11:08:04.084Z,19.83
2022-10-01T11:10:43.066Z,17.45
2022-10-01T11:13:29.331Z,19.58
2022-10-01T11:16:20.933Z,14.93
2022-10-01T11:19:01.701Z,13.30
2022-10-01T11:21:48.422Z,14.02
2022-10-01T11:24:33.614Z,15.07
2022-10-01T11:27:03.557Z,13.73
2022-10-01T11:29:54.862Z,17.65
2022-10-01T11:32:31.219Z,19.52
2022-10-01T11:35:18.791Z,15.50
2022-10-01T11:38:06.621Z,22.08
2022-10-01T11:40:41.179Z,18.98
2022-10-01T11:43:23.302Z,11.52
2022-10-01T11:45:56.483Z,13.60
2022-10-01T11:48:33.964Z,12.95
2022-10-01T11:51:09.508Z,21.67
2022-10-01T11:53:51.216Z,14.88
2022-10-01T11:56:42.807Z,13.32
2022-10-01T11:59:20.270Z,15.57
2022-10-01T12:02:09.265Z,11.93
2022-10-01T12:04:52.439Z,13.35
2022-10-01T12:07:36.413Z,14.75
2022-10-01T12:10:39.117Z,13.63
2022-10-01T12:13:32.874Z,19.08
2022-10-01T12:16:18.325Z,16.70
2022-10-01T12:18:59.444Z,14.25
2022-10-01T12:21:33.800Z,15.85
2022-10-01T12:24:31.735Z,18.00
2022-10-01T12:27:19.867Z,21.85
2022-10-01T12:29:49.551Z,19.73
2022-10-01T12:32:31.566Z,19.25
2022-10-01T12:35:18.764Z,12.95
2022-10-01T12:38:03.791Z,21.48
2022-10-01T12:40:31.571Z,18.83
2022-10-01T12:43:28.611Z,16.42
2022-10-01T12:46:32.051Z,23.17
2022-10-01T12:49:10.908Z,18.48
2022-10-01T12:51:38.271Z,21.70
2022-10-01T12:54:32.220Z,16.35
2022-10-01T12:57:37.399Z,24.88
2022-10-01T13:00:08.896Z,20.88
2022-10-01T13:02:48.011Z,15.82
2022-10-01T13:05:44.432Z,15.73
2022-10-01T13:08:17.164Z,15.45
2022-10-01T13:11:20.754Z,15.68
2022-10-01T13:13:52.256Z,13.85
2022-10-01T13:16:38.231Z,13.63
2022-10-01T13:19:05.504Z,17.00
2022-10-01T13:21:42.165Z,16.33
2022-10-01T13:24:44.820Z,17.00
2022-10-01T13:27:24.540Z,18.45
2022-10-01T13:30:06.028Z,15.15
2022-10-01T13:32:34.244Z,14.75
2022-10-01T13:35:21.489Z,17.20
2022-10-01T13:37:48.458Z,17.27
2022-10-01T13:40:27.495Z,15.70
2022-10-01T13:42:59.052Z,19.17
2022-10-01T13:45:30.890Z,21.85
2022-10-01T13:48:29.705Z,18.75
2022-10-01T13:51:07.242Z,16.00
2022-10-01T13:53:37.059Z,14.75
2022-10-01T13:56:05.295Z,18.50
2022-10-01T13:58:38.481Z,24.70
2022-10-01T14:01:26.378Z,17.30
2022-10-01T14:04:14.936Z,22.75
2022-10-01T14:06:54.802Z,18.45
2022-10-01T14:09:31.543Z,23.60
2022-10-01T14:12:27.310Z,17.25
2022-10-01T14:15:18.768Z,19.83
2022-10-01T14:17:50.119Z,25.45
2022-10-01T14:20:24.078Z,22.63
2022-10-01T14:22:50.997Z,21.80
2022-10-01T14:25:49.198Z,24.67
2022-10-01T14:29:05.808Z,22.48
2022-10-01T14:32:08.671Z,27.48
2022-10-01T14:35:01.583Z,20.25
2022-10-01T14:37:29.847Z,18.85
2022-10-01T14:40:18.744Z,22.98
2022-10-01T14:43:00.000Z,22.58
2022-10-01T14:45:27.247Z,23.33
2022-10-01T14:48:05.489Z,24.92
2022-10-01T14:50:37.674Z,26.00
2022-10-01T14:53:05.872Z,25.02
2022-10-01T14:55:35.757Z,28.95
2022-10-01T14:58:04.704Z,26.17
2022-10-01T15:00:33.345Z,25.98
2022-10-01T15:03:15.642Z,23.27
2022-10-01T15:05:44.016Z,22.02
2022-10-01T15:08:24.312Z,23.88
2022-10-01T15:11:00.722Z,23.88
2022-10-01T15:13:32.112Z,25.67
2022-10-01T15:15:59.768Z,28.58
2022-10-01T15:18:27.049Z,25.60
2022-10-01T15:20:57.768Z,18.75
2022-10-01T15:23:27.516Z,21.55
2022-10-01T15:25:56.697Z,17.42
2022-10-01T15:28:32.110Z,14.82
2022-10-01T15:31:01.223Z,17.30
2022-10-01T15:33:36.246Z,22.08
2022-10-01T15:36:05.856Z,14.90
2022-10-01T15:38:33.876Z,23.33
2022-10-01T15:41:26.642Z,13.75
2022-10-01T15:43:50.462Z,13.73
2022-10-01T15:46:29.950Z,18.15
2022-10-01T15:49:12.261Z,13.63
2022-10-01T15:52:11.400Z,16.17
2022-10-01T15:54:41.324Z,17.52
2022-10-01T15:57:09.265Z,14.90
2022-10-01T15:59:39.515Z,18.77
2022-10-01T16:02:18.675Z,16.40
2022-10-01T16:04:46.961Z,18.92
2022-10-01T16:07:31.038Z,13.73
2022-10-01T16:12:29.364Z,14.68
2022-10-01T16:15:00.820Z,19.00
2022-10-01T16:17:58.682Z,14.90
2022-10-01T16:20:37.634Z,17.75
2022-10-01T16:23:33.088Z,16.95
2022-10-01T16:26:04.841Z,18.35
2022-10-01T16:28:34.511Z,16.80
2022-10-01T16:31:04.012Z,25.00
2022-10-01T16:33:30.978Z,20.05
2022-10-01T16:36:26.282Z,19.98
2022-10-01T16:38:53.723Z,20.17
2022-10-01T16:41:26.206Z,19.02
2022-10-01T16:43:56.227Z,16.70
2022-10-01T16:46:23.237Z,21.55
2022-10-01T16:48:51.769Z,21.17
2022-10-01T16:51:19.689Z,18.65
2022-10-01T16:53:47.106Z,19.30
2022-10-01T16:56:14.835Z,20.15
2022-10-01T16:58:43.269Z,27.63
2022-10-01T17:01:14.703Z,21.27
2022-10-01T17:03:41.826Z,22.85
2022-10-01T17:06:08.815Z,24.58
2022-10-01T17:08:35.780Z,22.30
2022-10-01T17:11:03.345Z,22.02
2022-10-01T17:13:35.596Z,24.38
2022-10-01T17:16:05.001Z,20.52
2022-10-01T17:18:32.061Z,21.33
2022-10-01T17:20:59.582Z,19.48
2022-10-01T17:23:26.519Z,27.73
2022-10-01T17:25:53.635Z,21.65
2022-10-01T17:28:21.039Z,21.23
2022-10-01T17:30:49.241Z,17.60
2022-10-01T17:33:19.517Z,23.52
2022-10-01T17:35:54.736Z,21.83
2022-10-01T17:38:22.794Z,16.83
2022-10-01T17:40:55.430Z,21.50
2022-10-01T17:46:00.117Z,20.45
2022-10-01T17:48:28.236Z,24.35
2022-10-01T17:51:00.569Z,24.60
2022-10-01T17:53:34.075Z,19.75
2022-10-01T17:56:12.341Z,19.67
2022-10-01T17:58:42.941Z,29.38
2022-10-01T18:01:14.882Z,21.13
2022-10-01T18:03:42.203Z,27.23
2022-10-01T18:06:13.512Z,21.67
2022-10-01T18:08:54.772Z,28.20
2022-10-01T18:11:24.333Z,27.92
2022-10-01T18:13:52.593Z,32.03
2022-10-01T18:16:19.917Z,25.00
2022-10-01T18:21:34.928Z,32.15
2022-10-01T18:24:04.721Z,22.65
2022-10-01T18:26:33.145Z,30.92
2022-10-01T18:29:00.504Z,29.52
2022-10-01T18:31:34.543Z,22.77
2022-10-01T18:34:03.797Z,30.00
2022-10-01T18:36:37.154Z,29.92
2022-10-01T18:39:07.999Z,29.48
2022-10-01T18:41:39.595Z,28.48
2022-10-01T18:44:19.943Z,29.98
2022-10-01T18:46:50.036Z,33.53
2022-10-01T18:49:19.863Z,31.60
2022-10-01T18:51:51.938Z,31.90
2022-10-01T18:54:25.677Z,27.10
2022-10-01T18:57:15.656Z,30.17
2022-10-01T18:59:55.173Z,28.77
2022-10-01T19:02:55.749Z,32.13
2022-10-01T19:05:46.001Z,34.60
2022-10-01T19:08:42.621Z,28.98
2022-10-01T19:11:53.281Z,29.50
2022-10-01T19:14:37.032Z,34.80
2022-10-01T19:17:12.987Z,24.23
2022-10-01T19:20:24.901Z,30.52
2022-10-01T19:23:02.592Z,23.95
2022-10-01T19:25:47.639Z,33.92
2022-10-01T19:28:43.960Z,27.35
2022-10-01T19:31:28.729Z,28.48
2022-10-01T19:34:11.120Z,32.15
2022-10-01T19:36:41.581Z,32.80
2022-10-01T19:39:20.299Z,35.50
2022-10-01T19:42:16.476Z,32.50
2022-10-01T19:45:04.739Z,33.28
2022-10-01T19:47:34.405Z,35.63
2022-10-01T19:50:07.172Z,26.40
2022-10-01T19:52:38.314Z,37.80
2022-10-01T19:55:13.935Z,30.15
2022-10-01T19:57:43.716Z,31.48
2022-10-01T20:00:19.658Z,29.33
2022-10-01T20:02:51.302Z,33.88
2022-10-01T20:05:28.976Z,33.75
2022-10-01T20:08:15.889Z,31.63
2022-10-01T20:10:48.567Z,34.05
2022-10-01T20:13:39.083Z,30.23
2022-10-01T20:16:40.843Z,31.25
2022-10-01T20:19:27.226Z,37.28
2022-10-01T20:22:03.517Z,34.97
2022-10-01T20:25:04.185Z,31.92
2022-10-01T20:27:49.349Z,32.05
2022-10-01T20:30:21.272Z,32.58
2022-10-01T20:33:01.609Z,30.52
2022-10-01T20:35:47.020Z,32.85
2022-10-01T20:38:21.561Z,26.40
2022-10-01T20:40:55.549Z,24.50
2022-10-01T20:43:37.273Z,26.42
2022-10-01T20:46:16.545Z,31.63
2022-10-01T20:48:49.543Z,36.95
2022-10-01T20:51:42.916Z,31.13
2022-10-01T20:54:24.887Z,30.48
2022-10-01T20:57:20.407Z,31.05
2022-10-01T20:59:53.471Z,25.25
2022-10-01T21:02:20.392Z,24.13
2022-10-01T21:05:06.792Z,27.88
2022-10-01T21:07:48.847Z,23.55
2022-10-01T21:10:40.171Z,27.85
2022-10-01T21:13:33.852Z,22.35
2022-10-01T21:16:15.886Z,32.37
2022-10-01T21:19:14.067Z,34.15
2022-10-01T21:22:03.934Z,29.02
2022-10-01T21:25:03.227Z,24.63
2022-10-01T21:27:58.847Z,22.70
2022-10-01T21:30:32.160Z,22.08
2022-10-01T21:33:12.328Z,25.35
2022-10-01T21:35:47.904Z,25.10
2022-10-01T21:38:39.946Z,23.27
2022-10-01T21:41:13.104Z,22.42
2022-10-01T21:43:45.841Z,21.08
2022-10-01T21:46:46.081Z,24.67
2022-10-01T21:49:34.098Z,26.17
2022-10-01T21:52:27.431Z,25.35
2022-10-01T21:55:21.340Z,18.77
2022-10-01T21:58:07.725Z,28.45
2022-10-01T22:00:34.772Z,25.60
2022-10-01T22:03:10.889Z,28.33
2022-10-01T22:05:41.100Z,31.10
2022-10-01T22:08:37.252Z,27.08
2022-10-01T22:11:10.173Z,31.88
2022-10-01T22:13:46.171Z,23.55
2022-10-01T22:16:16.985Z,25.73
2022-10-01T22:19:00.651Z,22.48
2022-10-01T22:21:44.708Z,31.20
2022-10-01T22:24:46.319Z,22.65
2022-10-01T22:27:19.153Z,26.45
2022-10-01T22:29:58.439Z,22.48
2022-10-01T22:32:29.366Z,19.40
2022-10-01T22:35:02.995Z,22.58
2022-10-01T22:38:02.138Z,27.77
2022-10-01T22:40:42.214Z,21.48
2022-10-01T22:43:12.992Z,19.50
2022-10-01T22:46:06.738Z,31.80
2022-10-01T22:48:46.053Z,21.15
2022-10-01T22:51:24.948Z,23.20
2022-10-01T22:54:20.196Z,23.40
2022-10-01T22:56:53.178Z,27.45
2022-10-01T22:59:20.122Z,31.80
2022-10-01T23:02:08.938Z,25.20
2022-10-01T23:04:47.211Z,36.13
2022-10-01T23:08:04.775Z,25.73
2022-10-01T23:11:02.451Z,24.17
2022-10-01T23:14:09.948Z,24.48
2022-10-01T23:16:54.806Z,25.60
2022-10-01T23:19:47.226Z,24.73
2022-10-01T23:22:35.510Z,24.73
2022-10-01T23:25:14.301Z,22.80
2022-10-01T23:28:07.822Z,30.60
2022-10-01T23:31:06.898Z,28.20
2022-10-01T23:34:09.052Z,26.88
2022-10-01T23:36:47.008Z,29.17
2022-10-01T23:39:26.051Z,25.45
2022-10-01T23:41:58.820Z,27.58
2022-10-01T23:44:49.984Z,30.20
2022-10-01T23:47:22.205Z,25.13
2022-10-01T23:49:53.885Z,27.33
2022-10-01T23:52:32.160Z,27.15
2022-10-01T23:55:24.764Z,28.25
2022-10-01T23:58:02.341Z,22.48
